Alts de Monte Brisas, Puerto Rico
Current Conditions -  °F | °C
As of 7:53 PM on Thursday 25 Dec 2014 (Local Time) from TJNR Reporting Station
Few Clouds Few Clouds  
Wind Chill: 26°   Ceiling: Unl
Heat Index: 28°   Visibility: 10mi
Dew Point: 21°   Wind: 8mph
Humidity: 72%   Direction: 60°ENE
Pressure: 30.09"   Gusts: 17mph
Location:  18.3304°N, 65.6573°W
Report Text: TJNR 252353Z AUTO 06007G15KT 10SM FEW027 FEW060 26/21 A3009 RMK AO2 SLP190 T02610206 10289 20256 53012 $
Loading
Personal Weather Stations






























Interactive Weather Map New forecast layout! Learn more

10-Day Weather Forecast

Advertisements
Track Severe Weather on mobile